createdAt,value
2022-08-12T00:02:03.486Z,9.07
2022-08-12T00:04:20.206Z,7.68
2022-08-12T00:06:40.702Z,12.00
2022-08-12T00:09:01.180Z,10.10
2022-08-12T00:11:21.440Z,7.50
2022-08-12T00:13:41.772Z,10.77
2022-08-12T00:16:02.841Z,9.75
2022-08-12T00:18:23.335Z,11.82
2022-08-12T00:20:43.753Z,13.95
2022-08-12T00:23:04.270Z,12.00
2022-08-12T00:26:00.477Z,9.15
2022-08-12T00:28:06.387Z,10.23
2022-08-12T00:30:26.980Z,6.70
2022-08-12T00:32:54.283Z,8.35
2022-08-12T00:35:15.950Z,12.30
2022-08-12T00:37:36.841Z,7.90
2022-08-12T00:39:57.931Z,11.50
2022-08-12T00:42:11.513Z,12.55
2022-08-12T00:44:14.875Z,8.35
2022-08-12T00:46:31.883Z,10.02
2022-08-12T00:48:33.972Z,5.93
2022-08-12T00:50:38.383Z,13.32
2022-08-12T00:52:40.792Z,13.52
2022-08-12T00:54:51.564Z,13.98
2022-08-12T00:56:57.552Z,11.20
2022-08-12T00:59:02.568Z,14.23
2022-08-12T01:01:05.907Z,10.45
2022-08-12T01:03:10.077Z,12.98
2022-08-12T01:05:32.314Z,9.30
2022-08-12T01:07:53.653Z,8.55
2022-08-12T01:10:14.025Z,10.20
2022-08-12T01:12:16.784Z,8.95
2022-08-12T01:14:25.220Z,7.53
2022-08-12T01:16:27.316Z,8.98
2022-08-12T01:18:30.619Z,8.07
2022-08-12T01:20:47.280Z,7.82
2022-08-12T01:23:08.019Z,12.30
2022-08-12T01:25:16.325Z,5.75
2022-08-12T01:27:19.181Z,11.52
2022-08-12T01:29:26.167Z,8.30
2022-08-12T01:31:31.919Z,6.70
2022-08-12T01:33:37.407Z,9.95
2022-08-12T01:35:40.686Z,7.93
2022-08-12T01:37:54.509Z,8.82
2022-08-12T01:40:35.955Z,5.40
2022-08-12T01:42:20.957Z,8.23
2022-08-12T01:44:23.005Z,8.25
2022-08-12T01:46:29.544Z,15.40
2022-08-12T01:48:50.686Z,11.65
2022-08-12T01:51:09.683Z,9.63
2022-08-12T01:53:13.243Z,7.78
2022-08-12T01:57:16.515Z,10.10
2022-08-12T01:59:56.219Z,11.57
2022-08-12T02:01:59.679Z,5.43
2022-08-12T02:04:39.664Z,9.55
2022-08-12T02:07:06.914Z,6.95
2022-08-12T02:09:30.738Z,8.60
2022-08-12T02:11:34.749Z,8.25
2022-08-12T02:13:49.435Z,13.38
2022-08-12T02:15:59.492Z,10.25
2022-08-12T02:18:01.095Z,6.65
2022-08-12T02:20:02.650Z,9.02
2022-08-12T02:22:23.692Z,7.32
2022-08-12T02:24:26.868Z,4.93
2022-08-12T02:26:32.844Z,6.25
2022-08-12T02:28:36.759Z,7.03
2022-08-12T02:30:42.094Z,6.03
2022-08-12T02:32:44.666Z,11.32
2022-08-12T02:34:46.557Z,6.53
2022-08-12T02:36:48.333Z,8.20
2022-08-12T02:38:53.030Z,6.47
2022-08-12T02:40:57.510Z,6.22
2022-08-12T02:45:03.532Z,9.23
2022-08-12T02:47:06.444Z,10.32
2022-08-12T02:49:14.780Z,8.88
2022-08-12T02:51:19.328Z,14.27
2022-08-12T02:53:21.340Z,7.47
2022-08-12T02:55:34.122Z,8.13
2022-08-12T02:57:36.385Z,9.45
2022-08-12T02:59:38.376Z,6.35
2022-08-12T03:01:48.728Z,7.97
2022-08-12T03:03:52.838Z,8.45
2022-08-12T03:05:58.630Z,7.93
2022-08-12T03:08:04.607Z,9.38
2022-08-12T03:10:16.087Z,9.73
2022-08-12T03:12:20.812Z,8.30
2022-08-12T03:14:27.615Z,5.38
2022-08-12T03:16:33.173Z,10.23
2022-08-12T03:18:35.467Z,10.32
2022-08-12T03:20:40.893Z,14.35
2022-08-12T03:22:43.035Z,7.20
2022-08-12T03:24:45.343Z,10.65
2022-08-12T03:26:48.528Z,6.43
2022-08-12T03:28:50.420Z,11.48
2022-08-12T03:30:56.743Z,7.25
2022-08-12T03:32:59.896Z,8.93
2022-08-12T03:37:04.946Z,12.48
2022-08-12T03:39:18.598Z,14.13
2022-08-12T03:41:37.235Z,5.82
2022-08-12T03:44:01.886Z,10.73
2022-08-12T03:46:24.963Z,11.45
2022-08-12T03:48:45.535Z,14.85
2022-08-12T03:51:06.913Z,7.32
2022-08-12T03:53:27.208Z,9.20
2022-08-12T03:55:47.618Z,9.05
2022-08-12T03:58:08.060Z,7.60
2022-08-12T04:00:25.020Z,8.05
2022-08-12T04:02:26.776Z,7.22
2022-08-12T04:04:35.411Z,9.60
2022-08-12T04:06:41.324Z,7.22
2022-08-12T04:08:43.676Z,10.20
2022-08-12T04:11:04.172Z,5.78
2022-08-12T04:13:19.501Z,9.45
2022-08-12T04:15:24.839Z,7.68
2022-08-12T04:17:28.097Z,5.60
2022-08-12T04:19:30.251Z,10.45
2022-08-12T04:21:36.226Z,5.50
2022-08-12T04:23:39.143Z,11.88
2022-08-12T04:25:41.972Z,9.73
2022-08-12T04:27:44.987Z,5.95
2022-08-12T04:30:17.157Z,7.80
2022-08-12T04:32:08.546Z,7.85
2022-08-12T04:34:11.891Z,10.02
2022-08-12T04:36:13.706Z,8.05
2022-08-12T04:38:17.090Z,8.18
2022-08-12T04:40:28.445Z,12.18
2022-08-12T04:42:31.026Z,13.48
2022-08-12T04:44:32.630Z,13.40
2022-08-12T04:46:34.589Z,6.50
2022-08-12T04:48:37.303Z,9.80
2022-08-12T04:50:39.592Z,12.80
2022-08-12T04:52:41.526Z,6.90
2022-08-12T04:54:44.056Z,14.57
2022-08-12T04:56:45.799Z,9.10
2022-08-12T04:59:06.103Z,11.40
2022-08-12T05:01:08.322Z,10.23
2022-08-12T05:03:09.930Z,9.70
2022-08-12T05:05:18.943Z,10.60
2022-08-12T05:07:20.798Z,8.25
2022-08-12T05:09:22.366Z,11.25
2022-08-12T05:11:24.988Z,7.43
2022-08-12T05:13:29.325Z,9.57
2022-08-12T05:15:30.912Z,12.60
2022-08-12T05:17:32.562Z,6.90
2022-08-12T05:19:37.284Z,12.90
2022-08-12T05:21:39.732Z,21.88
2022-08-12T05:23:43.518Z,17.05
2022-08-12T05:25:46.875Z,9.55
2022-08-12T05:27:58.465Z,8.73
2022-08-12T05:30:06.608Z,9.52
2022-08-12T05:32:11.434Z,17.23
2022-08-12T05:34:14.578Z,10.40
2022-08-12T05:36:16.294Z,7.80
2022-08-12T05:38:37.396Z,12.30
2022-08-12T05:40:38.955Z,7.60
2022-08-12T05:42:40.510Z,8.63
2022-08-12T05:44:42.447Z,8.73
2022-08-12T05:46:45.495Z,7.50
2022-08-12T05:48:47.518Z,9.60
2022-08-12T05:50:49.308Z,13.23
2022-08-12T05:52:53.002Z,8.47
2022-08-12T05:54:57.734Z,12.68
2022-08-12T05:56:59.969Z,9.02
2022-08-12T05:59:02.626Z,7.10
2022-08-12T06:02:11.859Z,10.00
2022-08-12T06:03:26.071Z,12.63
2022-08-12T06:05:28.472Z,15.17
2022-08-12T06:09:51.674Z,14.00
2022-08-12T06:12:06.121Z,13.90
2022-08-12T06:14:11.974Z,10.32
2022-08-12T06:16:16.803Z,12.68
2022-08-12T06:18:19.192Z,13.65
2022-08-12T06:22:30.429Z,8.70
2022-08-12T06:24:33.318Z,10.07
2022-08-12T06:26:35.011Z,10.77
2022-08-12T06:28:37.118Z,6.95
2022-08-12T06:30:40.973Z,9.60
2022-08-12T06:32:47.740Z,10.38
2022-08-12T06:35:26.456Z,7.45
2022-08-12T06:37:22.055Z,7.40
2022-08-12T06:39:27.143Z,6.32
2022-08-12T06:42:05.081Z,9.20
2022-08-12T06:44:09.047Z,11.30
2022-08-12T06:46:11.303Z,12.60
2022-08-12T06:48:13.264Z,7.93
2022-08-12T06:50:18.283Z,10.02
2022-08-12T06:52:24.945Z,12.27
2022-08-12T06:54:29.837Z,11.90
2022-08-12T06:57:02.530Z,7.47
2022-08-12T06:58:57.826Z,3.75
2022-08-12T07:01:00.379Z,6.93
2022-08-12T07:03:22.769Z,4.68
2022-08-12T07:05:24.904Z,9.30
2022-08-12T07:07:27.296Z,7.32
2022-08-12T07:09:58.070Z,9.15
2022-08-12T07:11:50.911Z,5.63
2022-08-12T07:14:11.221Z,8.98
2022-08-12T07:16:16.114Z,9.35
2022-08-12T07:18:20.025Z,8.50
2022-08-12T07:20:50.801Z,7.82
2022-08-12T07:25:05.267Z,10.18
2022-08-12T07:27:07.013Z,9.23
2022-08-12T07:29:09.822Z,8.88
2022-08-12T07:31:11.732Z,7.03
2022-08-12T07:33:16.715Z,5.72
2022-08-12T07:35:19.404Z,13.20
2022-08-12T07:37:21.028Z,3.63
2022-08-12T07:39:22.980Z,6.45
2022-08-12T07:41:25.652Z,9.65
2022-08-12T07:43:28.088Z,6.90
2022-08-12T07:45:29.919Z,7.93
2022-08-12T07:47:31.702Z,6.90
2022-08-12T07:49:33.313Z,6.85
2022-08-12T07:51:56.239Z,5.50
2022-08-12T07:54:00.681Z,3.10
2022-08-12T07:56:06.090Z,7.55
2022-08-12T07:58:08.656Z,11.45
2022-08-12T08:00:10.697Z,5.30
2022-08-12T08:02:12.981Z,9.60
2022-08-12T08:04:33.535Z,11.13
2022-08-12T08:06:35.458Z,8.93
2022-08-12T08:08:37.060Z,7.00
2022-08-12T08:10:38.882Z,7.28
2022-08-12T08:12:57.500Z,7.68
2022-08-12T08:14:59.081Z,9.45
2022-08-12T08:17:03.280Z,5.93
2022-08-12T08:19:04.951Z,5.30
2022-08-12T08:21:06.621Z,10.20
2022-08-12T08:23:12.191Z,6.80
2022-08-12T08:25:35.683Z,7.30
2022-08-12T08:27:47.852Z,8.75
2022-08-12T08:29:49.653Z,7.57
2022-08-12T08:31:54.450Z,5.23
2022-08-12T08:34:09.052Z,4.82
2022-08-12T08:36:23.797Z,4.60
2022-08-12T08:38:32.870Z,6.45
2022-08-12T08:40:57.147Z,4.38
2022-08-12T08:42:58.972Z,7.73
2022-08-12T08:45:01.310Z,4.97
2022-08-12T08:47:03.758Z,8.40
2022-08-12T08:49:05.807Z,7.88
2022-08-12T08:51:07.520Z,8.23
2022-08-12T08:53:09.409Z,7.43
2022-08-12T08:55:13.810Z,5.32
2022-08-12T08:57:15.354Z,5.55
2022-08-12T08:59:19.290Z,4.13
2022-08-12T09:01:21.598Z,6.32
2022-08-12T09:05:09.770Z,7.45
2022-08-12T09:10:32.342Z,6.53
2022-08-12T09:12:54.291Z,6.72
2022-08-12T09:14:58.349Z,54.67
2022-08-12T09:17:00.674Z,9.35
2022-08-12T09:19:03.520Z,6.78
2022-08-12T09:21:07.029Z,6.03
2022-08-12T09:24:01.159Z,6.75
2022-08-12T09:25:34.505Z,6.45
2022-08-12T09:30:10.554Z,7.43
2022-08-12T09:32:56.517Z,6.38
2022-08-12T09:34:43.276Z,7.13
2022-08-12T09:36:57.991Z,7.60
2022-08-12T09:40:02.566Z,6.70
2022-08-12T09:42:08.637Z,5.50
2022-08-12T09:44:05.929Z,9.30
2022-08-12T09:46:22.049Z,8.68
2022-08-12T09:48:35.227Z,8.40
2022-08-12T09:50:40.446Z,7.45
2022-08-12T09:53:04.743Z,6.82
2022-08-12T09:55:07.423Z,6.40
2022-08-12T09:58:44.699Z,6.13
2022-08-12T10:00:14.016Z,7.50
2022-08-12T10:02:42.650Z,8.15
2022-08-12T10:04:33.988Z,8.15
2022-08-12T10:06:55.456Z,7.70
2022-08-12T10:08:59.717Z,5.80
2022-08-12T10:11:20.894Z,7.60
2022-08-12T10:13:41.462Z,8.70
2022-08-12T10:16:01.708Z,7.40
2022-08-12T10:18:07.818Z,8.48
2022-08-12T10:20:11.994Z,16.00
2022-08-12T10:22:17.113Z,6.22
2022-08-12T10:24:37.025Z,10.10
2022-08-12T10:26:58.039Z,11.05
2022-08-12T10:30:40.711Z,7.93
2022-08-12T10:31:47.205Z,9.40
2022-08-12T10:34:06.690Z,8.88
2022-08-12T10:36:16.012Z,12.07
2022-08-12T10:38:34.991Z,8.68
2022-08-12T10:41:00.441Z,6.50
2022-08-12T10:43:24.483Z,9.63
2022-08-12T10:45:26.054Z,12.95
2022-08-12T10:48:07.697Z,10.60
2022-08-12T10:50:04.572Z,7.50
2022-08-12T10:52:34.877Z,9.18
2022-08-12T10:54:36.708Z,7.50
2022-08-12T11:00:55.240Z,13.05
2022-08-12T11:04:25.695Z,9.35
2022-08-12T11:07:08.560Z,17.33
2022-08-12T11:08:38.603Z,13.48
2022-08-12T11:10:18.941Z,6.65
2022-08-12T11:12:57.082Z,11.18
2022-08-12T11:14:50.540Z,8.05
2022-08-12T11:17:34.293Z,6.82
2022-08-12T11:19:22.420Z,8.98
2022-08-12T11:21:56.978Z,13.43
2022-08-12T11:23:46.013Z,11.57
2022-08-12T11:25:59.638Z,7.68
2022-08-12T11:28:07.590Z,11.18
2022-08-12T11:30:31.462Z,9.50
2022-08-12T11:32:31.177Z,11.60
2022-08-12T11:34:53.856Z,11.90
2022-08-12T11:37:04.773Z,8.18
2022-08-12T11:39:06.651Z,8.23
2022-08-12T11:41:08.422Z,11.07
2022-08-12T11:43:19.961Z,12.95
2022-08-12T11:45:22.186Z,11.53
2022-08-12T11:47:25.124Z,11.68
2022-08-12T11:49:31.038Z,9.98
2022-08-12T11:51:36.454Z,11.60
2022-08-12T11:53:57.432Z,10.57
2022-08-12T11:56:01.544Z,10.88
2022-08-12T11:58:48.890Z,11.47
2022-08-12T12:02:47.632Z,12.48
2022-08-12T12:04:52.357Z,8.53
2022-08-12T12:06:54.962Z,19.90
2022-08-12T12:08:56.551Z,9.32
2022-08-12T12:11:02.246Z,10.77
2022-08-12T12:13:11.733Z,13.63
2022-08-12T12:15:41.132Z,11.23
2022-08-12T12:17:43.027Z,8.50
2022-08-12T12:19:46.408Z,12.00
2022-08-12T12:21:49.557Z,9.68
2022-08-12T12:23:51.615Z,11.10
2022-08-12T12:26:07.159Z,8.57
2022-08-12T12:28:37.860Z,18.77
2022-08-12T12:30:31.681Z,8.93
2022-08-12T12:32:33.439Z,9.23
2022-08-12T12:34:34.983Z,12.38
2022-08-12T12:36:38.383Z,9.20
2022-08-12T12:38:40.323Z,12.85
2022-08-12T12:40:45.817Z,8.63
2022-08-12T12:42:57.738Z,11.23
2022-08-12T12:45:01.622Z,15.90
2022-08-12T12:47:29.049Z,9.38
2022-08-12T12:49:31.803Z,9.32
2022-08-12T12:51:55.149Z,10.70
2022-08-12T12:54:08.062Z,9.35
2022-08-12T12:56:15.713Z,10.55
2022-08-12T12:58:18.179Z,9.48
2022-08-12T13:00:20.691Z,15.63
2022-08-12T13:02:42.262Z,12.48
2022-08-12T13:04:44.120Z,13.10
2022-08-12T13:06:52.078Z,10.20
2022-08-12T13:08:54.434Z,13.00
2022-08-12T13:11:06.169Z,12.05
2022-08-12T13:14:07.173Z,11.88
2022-08-12T13:15:45.318Z,10.05
2022-08-12T13:18:02.126Z,14.65
2022-08-12T13:20:05.653Z,9.45
2022-08-12T13:22:19.292Z,9.38
2022-08-12T13:24:22.283Z,9.27
2022-08-12T13:26:23.883Z,10.77
2022-08-12T13:28:28.677Z,9.25
2022-08-12T13:30:31.063Z,10.57
2022-08-12T13:32:32.626Z,11.90
2022-08-12T13:34:35.479Z,9.65
2022-08-12T13:36:38.191Z,13.75
2022-08-12T13:40:41.685Z,12.25
2022-08-12T13:42:51.039Z,12.45
2022-08-12T13:44:53.759Z,11.93
2022-08-12T13:49:02.531Z,10.32
2022-08-12T13:51:04.844Z,12.13
2022-08-12T13:53:23.689Z,10.07
2022-08-12T13:55:30.794Z,10.50
2022-08-12T13:57:44.675Z,13.40
2022-08-12T13:59:55.647Z,11.40
2022-08-12T14:02:02.672Z,10.57
2022-08-12T14:04:04.578Z,13.05
2022-08-12T14:06:06.434Z,12.38
2022-08-12T14:08:09.284Z,12.23
2022-08-12T14:10:29.819Z,20.70
2022-08-12T14:12:53.980Z,11.45
2022-08-12T14:14:57.957Z,12.90
2022-08-12T14:17:05.697Z,13.40
2022-08-12T14:19:18.401Z,12.70
2022-08-12T14:21:26.924Z,13.82
2022-08-12T14:24:05.624Z,15.73
2022-08-12T14:25:59.619Z,14.35
2022-08-12T14:28:11.543Z,19.70
2022-08-12T14:30:15.998Z,13.57
2022-08-12T14:32:19.215Z,19.45
2022-08-12T14:34:21.818Z,14.57
2022-08-12T14:36:30.016Z,12.45
2022-08-12T14:38:34.342Z,17.15
2022-08-12T14:40:40.371Z,15.60
2022-08-12T14:42:42.138Z,14.07
2022-08-12T14:44:58.121Z,15.52
2022-08-12T14:47:07.960Z,17.02
2022-08-12T14:50:01.413Z,14.65
2022-08-12T14:53:13.467Z,16.23
2022-08-12T14:56:26.215Z,17.40
2022-08-12T14:59:01.063Z,12.20
2022-08-12T15:01:41.460Z,14.02
2022-08-12T15:03:57.349Z,13.35
2022-08-12T15:06:39.440Z,15.27
2022-08-12T15:08:28.322Z,11.68
2022-08-12T15:10:32.131Z,15.10
2022-08-12T15:12:34.466Z,18.27
2022-08-12T15:14:37.950Z,12.00
2022-08-12T15:16:39.645Z,12.23
2022-08-12T15:18:55.130Z,12.27
2022-08-12T15:21:04.881Z,12.65
2022-08-12T15:23:18.111Z,11.65
2022-08-12T15:25:23.299Z,17.63
2022-08-12T15:28:03.200Z,11.98
2022-08-12T15:29:47.116Z,17.48
2022-08-12T15:32:01.254Z,11.70
2022-08-12T15:34:06.692Z,10.77
2022-08-12T15:36:08.743Z,10.52
2022-08-12T15:40:30.301Z,13.90
2022-08-12T15:42:32.184Z,13.38
2022-08-12T15:44:41.861Z,11.40
2022-08-12T15:46:44.774Z,12.10
2022-08-12T15:48:47.813Z,16.05
2022-08-12T15:50:52.794Z,14.23
2022-08-12T15:52:55.850Z,14.43
2022-08-12T15:55:04.993Z,11.75
2022-08-12T15:57:10.436Z,19.85
2022-08-12T15:59:20.317Z,14.57
2022-08-12T16:01:35.630Z,11.10
2022-08-12T16:03:46.351Z,12.13
2022-08-12T16:06:11.563Z,18.30
2022-08-12T16:08:21.218Z,17.05
2022-08-12T16:10:30.885Z,20.15
2022-08-12T16:12:39.448Z,22.85
2022-08-12T16:14:41.078Z,15.82
2022-08-12T16:16:42.877Z,17.02
2022-08-12T16:18:44.891Z,15.43
2022-08-12T16:20:47.297Z,15.13
2022-08-12T16:22:50.228Z,16.20
2022-08-12T16:24:52.201Z,22.23
2022-08-12T16:26:55.184Z,14.45
2022-08-12T16:28:57.528Z,24.90
2022-08-12T16:31:23.167Z,25.77
2022-08-12T16:33:31.780Z,23.90
2022-08-12T16:35:40.601Z,49.47
2022-08-12T16:38:24.383Z,45.65
2022-08-12T16:40:08.139Z,47.50
2022-08-12T16:42:09.811Z,27.77
2022-08-12T16:44:11.814Z,30.58
2022-08-12T16:46:32.741Z,30.52
2022-08-12T16:48:36.262Z,38.72
2022-08-12T16:50:38.764Z,43.60
2022-08-12T16:52:41.303Z,35.80
2022-08-12T16:54:44.275Z,44.85
2022-08-12T16:56:54.720Z,34.63
2022-08-12T16:58:59.562Z,56.42
2022-08-12T17:01:01.830Z,42.60
2022-08-12T17:03:03.830Z,41.80
2022-08-12T17:05:06.124Z,32.75
2022-08-12T17:07:17.779Z,26.98
2022-08-12T17:09:20.059Z,33.13
2022-08-12T17:11:21.712Z,31.98
2022-08-12T17:13:26.249Z,33.78
2022-08-12T17:15:57.003Z,38.42
2022-08-12T17:17:50.379Z,49.97
2022-08-12T17:20:34.741Z,38.58
2022-08-12T17:22:34.958Z,36.65
2022-08-12T17:24:39.999Z,36.95
2022-08-12T17:26:49.262Z,35.08
2022-08-12T17:28:53.311Z,44.20
2022-08-12T17:30:59.477Z,37.47
2022-08-12T17:33:02.915Z,34.63
2022-08-12T17:35:37.195Z,35.38
2022-08-12T17:37:40.083Z,39.45
2022-08-12T17:40:12.384Z,44.17
2022-08-12T17:42:04.322Z,43.50
2022-08-12T17:44:27.151Z,53.05
2022-08-12T17:48:38.640Z,59.30
2022-08-12T17:50:43.139Z,42.55
2022-08-12T17:52:44.766Z,47.10
2022-08-12T17:54:52.755Z,50.00
2022-08-12T17:56:57.723Z,42.60
2022-08-12T17:59:00.931Z,38.15
2022-08-12T18:01:02.886Z,43.97
2022-08-12T18:03:04.770Z,45.90
2022-08-12T18:07:13.258Z,36.22
2022-08-12T18:09:16.098Z,38.85
2022-08-12T18:12:03.698Z,39.08
2022-08-12T18:13:58.480Z,41.95
2022-08-12T18:16:06.776Z,38.45
2022-08-12T18:18:16.524Z,34.92
2022-08-12T18:20:18.788Z,31.77
2022-08-12T18:22:21.931Z,37.17
2022-08-12T18:24:31.094Z,31.85
2022-08-12T18:26:36.101Z,28.60
2022-08-12T18:28:43.133Z,30.00
2022-08-12T18:30:52.254Z,38.58
2022-08-12T18:33:03.859Z,41.22
2022-08-12T18:35:10.801Z,52.22
2022-08-12T18:37:29.441Z,46.10
2022-08-12T18:39:58.826Z,33.13
2022-08-12T18:42:00.517Z,29.83
2022-08-12T18:44:09.812Z,28.27
2022-08-12T18:46:13.244Z,30.83
2022-08-12T18:50:16.537Z,29.13
2022-08-12T18:52:21.966Z,33.88
2022-08-12T18:54:25.819Z,37.17
2022-08-12T18:56:34.249Z,40.10
2022-08-12T18:58:37.568Z,34.60
2022-08-12T19:00:40.351Z,34.13
2022-08-12T19:02:48.895Z,40.80
2022-08-12T19:04:53.430Z,40.80
2022-08-12T19:06:58.890Z,33.08
2022-08-12T19:09:00.505Z,37.15
2022-08-12T19:11:22.995Z,32.65
2022-08-12T19:13:43.733Z,29.70
2022-08-12T19:15:45.480Z,32.35
2022-08-12T19:18:00.989Z,28.08
2022-08-12T19:20:05.628Z,28.00
2022-08-12T19:22:07.171Z,27.35
2022-08-12T19:24:27.795Z,27.63
2022-08-12T19:26:29.555Z,28.25
2022-08-12T19:28:35.205Z,32.40
2022-08-12T19:30:56.594Z,27.33
2022-08-12T19:32:58.741Z,30.42
2022-08-12T19:36:14.244Z,32.30
2022-08-12T19:37:38.344Z,30.35
2022-08-12T19:40:09.686Z,41.05
2022-08-12T19:42:15.754Z,34.08
2022-08-12T19:44:26.440Z,41.17
2022-08-12T19:46:34.634Z,30.88
2022-08-12T19:48:38.237Z,27.27
2022-08-12T19:50:49.968Z,29.38
2022-08-12T19:52:54.938Z,32.13
2022-08-12T19:54:57.209Z,30.73
2022-08-12T19:56:59.655Z,35.07
2022-08-12T19:59:21.874Z,36.47
2022-08-12T20:01:23.442Z,36.47
2022-08-12T20:03:38.505Z,37.38
2022-08-12T20:06:05.882Z,33.30
2022-08-12T20:08:09.183Z,33.92
2022-08-12T20:10:16.514Z,30.95
2022-08-12T20:12:31.598Z,31.55
2022-08-12T20:14:34.536Z,31.88
2022-08-12T20:19:00.896Z,32.90
2022-08-12T20:21:03.404Z,33.58
2022-08-12T20:23:22.472Z,33.40
2022-08-12T20:25:28.525Z,33.28
2022-08-12T20:28:03.228Z,36.65
2022-08-12T20:30:10.527Z,31.98
2022-08-12T20:32:14.827Z,31.83
2022-08-12T20:34:22.606Z,33.80
2022-08-12T20:36:42.547Z,32.90
2022-08-12T20:38:46.621Z,36.13
2022-08-12T20:40:48.438Z,34.78
2022-08-12T20:42:53.473Z,47.55
2022-08-12T20:44:56.117Z,35.53
2022-08-12T20:47:18.471Z,36.15
2022-08-12T20:49:25.355Z,45.83
2022-08-12T20:51:28.097Z,44.33
2022-08-12T20:53:57.506Z,34.63
2022-08-12T20:56:19.414Z,41.92
2022-08-12T20:58:21.792Z,43.63
2022-08-12T21:00:28.225Z,41.45
2022-08-12T21:02:30.945Z,36.95
2022-08-12T21:04:51.587Z,40.03
2022-08-12T21:07:08.206Z,37.35
2022-08-12T21:09:10.728Z,42.83
2022-08-12T21:11:12.382Z,37.58
2022-08-12T21:13:20.007Z,39.67
2022-08-12T21:15:30.381Z,38.22
2022-08-12T21:18:08.792Z,39.28
2022-08-12T21:20:06.595Z,33.20
2022-08-12T21:22:24.330Z,32.20
2022-08-12T21:24:32.513Z,30.35
2022-08-12T21:26:35.807Z,29.17
2022-08-12T21:28:42.392Z,28.95
2022-08-12T21:32:34.710Z,26.30
2022-08-12T21:33:24.347Z,30.08
2022-08-12T21:35:35.989Z,34.65
2022-08-12T21:37:42.421Z,33.72
2022-08-12T21:39:56.397Z,28.45
2022-08-12T21:42:02.505Z,31.63
2022-08-12T21:44:32.555Z,33.50
2022-08-12T21:46:35.238Z,27.15
2022-08-12T21:48:37.430Z,25.60
2022-08-12T21:50:41.385Z,30.80
2022-08-12T21:52:49.114Z,28.60
2022-08-12T21:54:56.450Z,29.48
2022-08-12T21:56:58.394Z,29.17
2022-08-12T21:58:59.977Z,33.83
2022-08-12T22:01:02.442Z,29.58
2022-08-12T22:04:01.310Z,35.67
2022-08-12T22:06:04.098Z,29.50
2022-08-12T22:08:06.906Z,29.55
2022-08-12T22:10:12.228Z,26.55
2022-08-12T22:12:32.535Z,29.75
2022-08-12T22:14:34.734Z,26.45
2022-08-12T22:16:39.046Z,25.17
2022-08-12T22:18:50.460Z,22.73
2022-08-12T22:20:53.306Z,20.52
2022-08-12T22:22:56.772Z,22.13
2022-08-12T22:25:00.010Z,25.95
2022-08-12T22:27:14.637Z,22.65
2022-08-12T22:29:43.778Z,20.80
2022-08-12T22:31:45.791Z,24.45
2022-08-12T22:33:54.309Z,26.17
2022-08-12T22:36:02.138Z,27.15
2022-08-12T22:38:17.212Z,36.78
2022-08-12T22:40:21.575Z,29.48
2022-08-12T22:42:42.195Z,30.23
2022-08-12T22:45:02.369Z,34.05
2022-08-12T22:47:45.779Z,37.75
2022-08-12T22:49:53.516Z,30.20
2022-08-12T22:52:06.871Z,27.15
2022-08-12T22:54:35.823Z,30.60
2022-08-12T22:56:31.974Z,28.33
2022-08-12T22:58:36.612Z,29.73
2022-08-12T23:00:46.605Z,27.77
2022-08-12T23:02:48.219Z,30.17
2022-08-12T23:04:51.876Z,27.90
2022-08-12T23:06:56.594Z,28.23
2022-08-12T23:08:59.664Z,33.55
2022-08-12T23:11:05.912Z,30.70
2022-08-12T23:13:27.054Z,35.45
2022-08-12T23:15:40.577Z,36.97
2022-08-12T23:17:49.453Z,33.30
2022-08-12T23:19:51.840Z,29.83
2022-08-12T23:22:04.327Z,29.98
2022-08-12T23:24:10.440Z,33.70
2022-08-12T23:26:12.762Z,32.38
2022-08-12T23:28:34.597Z,29.05
2022-08-12T23:30:39.226Z,28.15
2022-08-12T23:32:41.051Z,33.67
2022-08-12T23:34:47.889Z,34.50
2022-08-12T23:36:52.400Z,31.38
2022-08-12T23:38:58.575Z,32.58
2022-08-12T23:41:05.900Z,26.60
2022-08-12T23:43:07.934Z,28.48
2022-08-12T23:45:20.680Z,26.80
2022-08-12T23:47:32.564Z,31.05
2022-08-12T23:49:57.183Z,30.33
2022-08-12T23:52:07.002Z,25.70
2022-08-12T23:54:18.009Z,32.22
2022-08-12T23:56:34.886Z,26.48
2022-08-12T23:58:49.653Z,28.73
